sensor_id;sensor_type;location;lat;lon;timestamp;pressure;altitude;pressure_sealevel;temperature;humidity
36196;BME280;22237;51.974;4.616;2023-07-30T00:01:47;60778.63;;;-145.49;100.00
36196;BME280;22237;51.974;4.616;2023-07-30T00:04:12;60778.63;;;-145.49;100.00
36196;BME280;22237;51.974;4.616;2023-07-30T00:06:37;60778.63;;;-145.49;100.00
36196;BME280;22237;51.974;4.616;2023-07-30T00:09:03;60778.63;;;-145.49;100.00
36196;BME280;22237;51.974;4.616;2023-07-30T00:11:29;60778.63;;;-145.49;100.00
36196;BME280;22237;51.974;4.616;2023-07-30T00:13:54;60778.63;;;-145.49;100.00
36196;BME280;22237;51.974;4.616;2023-07-30T00:16:20;60778.63;;;-145.49;100.00
36196;BME280;22237;51.974;4.616;2023-07-30T00:18:45;60778.63;;;-145.49;100.00
36196;BME280;22237;51.974;4.616;2023-07-30T00:21:10;60778.63;;;-145.49;100.00
36196;BME280;22237;51.974;4.616;2023-07-30T00:23:36;60778.63;;;-145.49;100.00
36196;BME280;22237;51.974;4.616;2023-07-30T00:26:01;60778.63;;;-145.49;100.00
36196;BME280;22237;51.974;4.616;2023-07-30T00:28:26;60778.63;;;-145.49;100.00
36196;BME280;22237;51.974;4.616;2023-07-30T00:30:52;60778.63;;;-145.49;100.00
36196;BME280;22237;51.974;4.616;2023-07-30T00:33:17;60778.63;;;-145.49;100.00
36196;BME280;22237;51.974;4.616;2023-07-30T00:35:42;60778.63;;;-145.49;100.00
36196;BME280;22237;51.974;4.616;2023-07-30T00:38:08;60778.63;;;-145.49;100.00
36196;BME280;22237;51.974;4.616;2023-07-30T00:40:39;60778.63;;;-145.49;100.00
36196;BME280;22237;51.974;4.616;2023-07-30T00:43:05;60778.63;;;-145.49;100.00
36196;BME280;22237;51.974;4.616;2023-07-30T00:45:30;60778.63;;;-145.49;100.00
36196;BME280;22237;51.974;4.616;2023-07-30T00:47:56;60778.63;;;-145.49;100.00
36196;BME280;22237;51.974;4.616;2023-07-30T00:50:22;60778.63;;;-145.49;100.00
36196;BME280;22237;51.974;4.616;2023-07-30T00:52:47;60778.63;;;-145.49;100.00
36196;BME280;22237;51.974;4.616;2023-07-30T00:55:14;60778.63;;;-145.49;100.00
36196;BME280;22237;51.974;4.616;2023-07-30T00:57:41;60778.63;;;-145.49;100.00
36196;BME280;22237;51.974;4.616;2023-07-30T01:00:07;60778.63;;;-145.49;100.00
36196;BME280;22237;51.974;4.616;2023-07-30T01:02:35;60778.63;;;-145.49;100.00
36196;BME280;22237;51.974;4.616;2023-07-30T01:05:01;60778.63;;;-145.49;100.00
36196;BME280;22237;51.974;4.616;2023-07-30T01:07:28;60778.63;;;-145.49;100.00
36196;BME280;22237;51.974;4.616;2023-07-30T01:09:53;60778.63;;;-145.49;100.00
36196;BME280;22237;51.974;4.616;2023-07-30T01:12:19;60778.63;;;-145.49;100.00
36196;BME280;22237;51.974;4.616;2023-07-30T01:14:45;60778.63;;;-145.49;100.00
36196;BME280;22237;51.974;4.616;2023-07-30T01:17:11;60778.63;;;-145.49;100.00
36196;BME280;22237;51.974;4.616;2023-07-30T01:19:37;60778.63;;;-145.49;100.00
36196;BME280;22237;51.974;4.616;2023-07-30T01:22:02;60778.63;;;-145.49;100.00
36196;BME280;22237;51.974;4.616;2023-07-30T01:24:28;60778.63;;;-145.49;100.00
36196;BME280;22237;51.974;4.616;2023-07-30T01:27:04;60778.63;;;-145.49;100.00
36196;BME280;22237;51.974;4.616;2023-07-30T01:32:10;60778.63;;;-145.49;100.00
36196;BME280;22237;51.974;4.616;2023-07-30T01:34:37;60778.63;;;-145.49;100.00
36196;BME280;22237;51.974;4.616;2023-07-30T01:37:05;60778.63;;;-145.49;100.00
36196;BME280;22237;51.974;4.616;2023-07-30T01:39:34;60778.63;;;-145.49;100.00
36196;BME280;22237;51.974;4.616;2023-07-30T01:42:01;60778.63;;;-145.49;100.00
36196;BME280;22237;51.974;4.616;2023-07-30T01:44:27;60778.63;;;-145.49;100.00
36196;BME280;22237;51.974;4.616;2023-07-30T01:46:52;60778.63;;;-145.49;100.00
36196;BME280;22237;51.974;4.616;2023-07-30T01:49:17;60778.63;;;-145.49;100.00
36196;BME280;22237;51.974;4.616;2023-07-30T01:51:43;60778.63;;;-145.49;100.00
36196;BME280;22237;51.974;4.616;2023-07-30T01:54:08;60778.63;;;-145.49;100.00
36196;BME280;22237;51.974;4.616;2023-07-30T01:56:33;60778.63;;;-145.49;100.00
36196;BME280;22237;51.974;4.616;2023-07-30T01:58:59;60778.63;;;-145.49;100.00
36196;BME280;22237;51.974;4.616;2023-07-30T02:01:24;60778.63;;;-145.49;100.00
36196;BME280;22237;51.974;4.616;2023-07-30T02:03:49;60778.63;;;-145.49;100.00
36196;BME280;22237;51.974;4.616;2023-07-30T02:06:15;60778.63;;;-145.49;100.00
36196;BME280;22237;51.974;4.616;2023-07-30T02:08:40;60778.63;;;-145.49;100.00
36196;BME280;22237;51.974;4.616;2023-07-30T02:11:05;60778.63;;;-145.49;100.00
36196;BME280;22237;51.974;4.616;2023-07-30T02:13:31;60778.63;;;-145.49;100.00
36196;BME280;22237;51.974;4.616;2023-07-30T02:15:56;60778.63;;;-145.49;100.00
36196;BME280;22237;51.974;4.616;2023-07-30T02:18:21;60778.63;;;-145.49;100.00
36196;BME280;22237;51.974;4.616;2023-07-30T02:20:47;60778.63;;;-145.49;100.00
36196;BME280;22237;51.974;4.616;2023-07-30T02:23:14;60778.63;;;-145.49;100.00
36196;BME280;22237;51.974;4.616;2023-07-30T02:25:41;60778.63;;;-145.49;100.00
36196;BME280;22237;51.974;4.616;2023-07-30T02:28:06;60778.63;;;-145.49;100.00
36196;BME280;22237;51.974;4.616;2023-07-30T02:30:33;60778.63;;;-145.49;100.00
36196;BME280;22237;51.974;4.616;2023-07-30T02:32:59;60778.63;;;-145.49;100.00
36196;BME280;22237;51.974;4.616;2023-07-30T02:35:24;60778.63;;;-145.49;100.00
36196;BME280;22237;51.974;4.616;2023-07-30T02:37:49;60778.63;;;-145.49;100.00
36196;BME280;22237;51.974;4.616;2023-07-30T02:40:15;60778.63;;;-145.49;100.00
36196;BME280;22237;51.974;4.616;2023-07-30T02:42:43;60778.63;;;-145.49;100.00
36196;BME280;22237;51.974;4.616;2023-07-30T02:45:09;60778.63;;;-145.49;100.00
36196;BME280;22237;51.974;4.616;2023-07-30T02:47:35;60778.63;;;-145.49;100.00
36196;BME280;22237;51.974;4.616;2023-07-30T02:50:01;60778.63;;;-145.49;100.00
36196;BME280;22237;51.974;4.616;2023-07-30T02:52:26;60778.63;;;-145.49;100.00
36196;BME280;22237;51.974;4.616;2023-07-30T02:54:52;60778.63;;;-145.49;100.00
36196;BME280;22237;51.974;4.616;2023-07-30T02:57:17;60778.63;;;-145.49;100.00
36196;BME280;22237;51.974;4.616;2023-07-30T02:59:42;60778.63;;;-145.49;100.00
36196;BME280;22237;51.974;4.616;2023-07-30T03:02:08;60778.63;;;-145.49;100.00
36196;BME280;22237;51.974;4.616;2023-07-30T03:04:34;60778.63;;;-145.49;100.00
36196;BME280;22237;51.974;4.616;2023-07-30T03:06:59;60778.63;;;-145.49;100.00
36196;BME280;22237;51.974;4.616;2023-07-30T03:09:24;60778.63;;;-145.49;100.00
36196;BME280;22237;51.974;4.616;2023-07-30T03:11:50;60778.63;;;-145.49;100.00
36196;BME280;22237;51.974;4.616;2023-07-30T03:14:16;60778.63;;;-145.49;100.00
36196;BME280;22237;51.974;4.616;2023-07-30T03:16:41;60778.63;;;-145.49;100.00
36196;BME280;22237;51.974;4.616;2023-07-30T03:19:06;60778.63;;;-145.49;100.00
36196;BME280;22237;51.974;4.616;2023-07-30T03:21:32;60778.63;;;-145.49;100.00
36196;BME280;22237;51.974;4.616;2023-07-30T03:23:57;60778.63;;;-145.49;100.00
36196;BME280;22237;51.974;4.616;2023-07-30T03:26:23;60778.63;;;-145.49;100.00
36196;BME280;22237;51.974;4.616;2023-07-30T03:28:48;60778.63;;;-145.49;100.00
36196;BME280;22237;51.974;4.616;2023-07-30T03:31:13;60778.63;;;-145.49;100.00
36196;BME280;22237;51.974;4.616;2023-07-30T03:33:40;60778.63;;;-145.49;100.00
36196;BME280;22237;51.974;4.616;2023-07-30T03:36:09;60778.63;;;-145.49;100.00
36196;BME280;22237;51.974;4.616;2023-07-30T03:38:35;60778.63;;;-145.49;100.00
36196;BME280;22237;51.974;4.616;2023-07-30T03:41:00;60778.63;;;-145.49;100.00
36196;BME280;22237;51.974;4.616;2023-07-30T03:43:25;60778.63;;;-145.49;100.00
36196;BME280;22237;51.974;4.616;2023-07-30T03:45:51;60778.63;;;-145.49;100.00
36196;BME280;22237;51.974;4.616;2023-07-30T03:48:16;60778.63;;;-145.49;100.00
36196;BME280;22237;51.974;4.616;2023-07-30T03:50:42;60778.63;;;-145.49;100.00
36196;BME280;22237;51.974;4.616;2023-07-30T03:53:07;60778.63;;;-145.49;100.00
36196;BME280;22237;51.974;4.616;2023-07-30T03:55:32;60778.63;;;-145.49;100.00
36196;BME280;22237;51.974;4.616;2023-07-30T03:57:58;60778.63;;;-145.49;100.00
36196;BME280;22237;51.974;4.616;2023-07-30T04:00:23;60778.63;;;-145.49;100.00
36196;BME280;22237;51.974;4.616;2023-07-30T04:02:49;60778.63;;;-145.49;100.00
36196;BME280;22237;51.974;4.616;2023-07-30T04:05:14;60778.63;;;-145.49;100.00
36196;BME280;22237;51.974;4.616;2023-07-30T04:07:39;60778.63;;;-145.49;100.00
36196;BME280;22237;51.974;4.616;2023-07-30T04:10:05;60778.63;;;-145.49;100.00
36196;BME280;22237;51.974;4.616;2023-07-30T04:12:31;60778.63;;;-145.49;100.00
36196;BME280;22237;51.974;4.616;2023-07-30T04:14:56;60778.63;;;-145.49;100.00
36196;BME280;22237;51.974;4.616;2023-07-30T04:17:21;60778.63;;;-145.49;100.00
36196;BME280;22237;51.974;4.616;2023-07-30T04:19:47;60778.63;;;-145.49;100.00
36196;BME280;22237;51.974;4.616;2023-07-30T04:22:12;60778.63;;;-145.49;100.00
36196;BME280;22237;51.974;4.616;2023-07-30T04:24:38;60778.63;;;-145.49;100.00
36196;BME280;22237;51.974;4.616;2023-07-30T04:27:03;60778.63;;;-145.49;100.00
36196;BME280;22237;51.974;4.616;2023-07-30T04:29:29;60778.63;;;-145.49;100.00
36196;BME280;22237;51.974;4.616;2023-07-30T04:31:54;60778.63;;;-145.49;100.00
36196;BME280;22237;51.974;4.616;2023-07-30T04:34:20;60778.63;;;-145.49;100.00
36196;BME280;22237;51.974;4.616;2023-07-30T04:36:45;60778.63;;;-145.49;100.00
36196;BME280;22237;51.974;4.616;2023-07-30T04:39:10;60778.63;;;-145.49;100.00
36196;BME280;22237;51.974;4.616;2023-07-30T04:41:37;60778.63;;;-145.49;100.00
36196;BME280;22237;51.974;4.616;2023-07-30T04:44:03;60778.63;;;-145.49;100.00
36196;BME280;22237;51.974;4.616;2023-07-30T04:46:28;60778.63;;;-145.49;100.00
36196;BME280;22237;51.974;4.616;2023-07-30T04:48:55;60778.63;;;-145.49;100.00
36196;BME280;22237;51.974;4.616;2023-07-30T04:51:20;60778.63;;;-145.49;100.00
36196;BME280;22237;51.974;4.616;2023-07-30T04:53:45;60778.63;;;-145.49;100.00
36196;BME280;22237;51.974;4.616;2023-07-30T04:56:11;60778.63;;;-145.49;100.00
36196;BME280;22237;51.974;4.616;2023-07-30T04:58:36;60778.63;;;-145.49;100.00
36196;BME280;22237;51.974;4.616;2023-07-30T05:01:02;60778.63;;;-145.49;100.00
36196;BME280;22237;51.974;4.616;2023-07-30T05:03:27;60778.63;;;-145.49;100.00
36196;BME280;22237;51.974;4.616;2023-07-30T05:05:53;60778.63;;;-145.49;100.00
36196;BME280;22237;51.974;4.616;2023-07-30T05:08:19;60778.63;;;-145.49;100.00
36196;BME280;22237;51.974;4.616;2023-07-30T05:10:44;60778.63;;;-145.49;100.00
36196;BME280;22237;51.974;4.616;2023-07-30T05:13:09;60778.63;;;-145.49;100.00
36196;BME280;22237;51.974;4.616;2023-07-30T05:15:35;60778.63;;;-145.49;100.00
36196;BME280;22237;51.974;4.616;2023-07-30T05:18:00;60778.63;;;-145.49;100.00
36196;BME280;22237;51.974;4.616;2023-07-30T05:20:26;60778.63;;;-145.49;100.00
36196;BME280;22237;51.974;4.616;2023-07-30T05:22:51;60778.63;;;-145.49;100.00
36196;BME280;22237;51.974;4.616;2023-07-30T05:25:17;60778.63;;;-145.49;100.00
36196;BME280;22237;51.974;4.616;2023-07-30T05:27:42;60778.63;;;-145.49;100.00
36196;BME280;22237;51.974;4.616;2023-07-30T05:30:07;60778.63;;;-145.49;100.00
36196;BME280;22237;51.974;4.616;2023-07-30T05:32:33;60778.63;;;-145.49;100.00
36196;BME280;22237;51.974;4.616;2023-07-30T05:34:58;60778.63;;;-145.49;100.00
36196;BME280;22237;51.974;4.616;2023-07-30T05:37:24;60778.63;;;-145.49;100.00
36196;BME280;22237;51.974;4.616;2023-07-30T05:39:49;60778.63;;;-145.49;100.00
36196;BME280;22237;51.974;4.616;2023-07-30T05:42:14;60778.63;;;-145.49;100.00
36196;BME280;22237;51.974;4.616;2023-07-30T05:44:40;60778.63;;;-145.49;100.00
36196;BME280;22237;51.974;4.616;2023-07-30T05:47:05;60778.63;;;-145.49;100.00
36196;BME280;22237;51.974;4.616;2023-07-30T05:49:30;60778.63;;;-145.49;100.00
36196;BME280;22237;51.974;4.616;2023-07-30T05:51:57;60778.63;;;-145.49;100.00
36196;BME280;22237;51.974;4.616;2023-07-30T05:54:22;60778.63;;;-145.49;100.00
36196;BME280;22237;51.974;4.616;2023-07-30T05:56:48;60778.63;;;-145.49;100.00
36196;BME280;22237;51.974;4.616;2023-07-30T05:59:13;60778.63;;;-145.49;100.00
36196;BME280;22237;51.974;4.616;2023-07-30T06:01:39;60778.63;;;-145.49;100.00
36196;BME280;22237;51.974;4.616;2023-07-30T06:04:05;60778.63;;;-145.49;100.00
36196;BME280;22237;51.974;4.616;2023-07-30T06:06:30;60778.63;;;-145.49;100.00
36196;BME280;22237;51.974;4.616;2023-07-30T06:08:56;60778.63;;;-145.49;100.00
36196;BME280;22237;51.974;4.616;2023-07-30T06:11:22;60778.63;;;-145.49;100.00
36196;BME280;22237;51.974;4.616;2023-07-30T06:13:47;60778.63;;;-145.49;100.00
36196;BME280;22237;51.974;4.616;2023-07-30T06:16:13;60778.63;;;-145.49;100.00
36196;BME280;22237;51.974;4.616;2023-07-30T06:18:39;60778.63;;;-145.49;100.00
36196;BME280;22237;51.974;4.616;2023-07-30T06:21:04;60778.63;;;-145.49;100.00
36196;BME280;22237;51.974;4.616;2023-07-30T06:23:29;60778.63;;;-145.49;100.00
36196;BME280;22237;51.974;4.616;2023-07-30T06:25:55;60778.63;;;-145.49;100.00
36196;BME280;22237;51.974;4.616;2023-07-30T06:28:20;60778.63;;;-145.49;100.00
36196;BME280;22237;51.974;4.616;2023-07-30T06:30:45;60778.63;;;-145.49;100.00
36196;BME280;22237;51.974;4.616;2023-07-30T06:33:11;60778.63;;;-145.49;100.00
36196;BME280;22237;51.974;4.616;2023-07-30T06:35:36;60778.63;;;-145.49;100.00
36196;BME280;22237;51.974;4.616;2023-07-30T06:38:02;60778.63;;;-145.49;100.00
36196;BME280;22237;51.974;4.616;2023-07-30T06:40:27;60778.63;;;-145.49;100.00
36196;BME280;22237;51.974;4.616;2023-07-30T06:42:52;60778.63;;;-145.49;100.00
36196;BME280;22237;51.974;4.616;2023-07-30T06:45:18;60778.63;;;-145.49;100.00
36196;BME280;22237;51.974;4.616;2023-07-30T06:47:43;60778.63;;;-145.49;100.00
36196;BME280;22237;51.974;4.616;2023-07-30T06:50:09;60778.63;;;-145.49;100.00
36196;BME280;22237;51.974;4.616;2023-07-30T06:52:35;60778.63;;;-145.49;100.00
36196;BME280;22237;51.974;4.616;2023-07-30T06:55:01;60778.63;;;-145.49;100.00
36196;BME280;22237;51.974;4.616;2023-07-30T06:57:28;60778.63;;;-145.49;100.00
36196;BME280;22237;51.974;4.616;2023-07-30T06:59:53;60778.63;;;-145.49;100.00
36196;BME280;22237;51.974;4.616;2023-07-30T07:02:19;60778.63;;;-145.49;100.00
36196;BME280;22237;51.974;4.616;2023-07-30T07:04:44;60778.63;;;-145.49;100.00
36196;BME280;22237;51.974;4.616;2023-07-30T07:07:10;60778.63;;;-145.49;100.00
36196;BME280;22237;51.974;4.616;2023-07-30T07:09:35;60778.63;;;-145.49;100.00
36196;BME280;22237;51.974;4.616;2023-07-30T07:12:00;60778.63;;;-145.49;100.00
36196;BME280;22237;51.974;4.616;2023-07-30T07:14:26;60778.63;;;-145.49;100.00
36196;BME280;22237;51.974;4.616;2023-07-30T07:16:53;60778.63;;;-145.49;100.00
36196;BME280;22237;51.974;4.616;2023-07-30T07:19:19;60778.63;;;-145.49;100.00
36196;BME280;22237;51.974;4.616;2023-07-30T07:21:47;60778.63;;;-145.49;100.00
36196;BME280;22237;51.974;4.616;2023-07-30T07:24:12;60778.63;;;-145.49;100.00
36196;BME280;22237;51.974;4.616;2023-07-30T07:26:38;60778.63;;;-145.49;100.00
36196;BME280;22237;51.974;4.616;2023-07-30T07:29:03;60778.63;;;-145.49;100.00
36196;BME280;22237;51.974;4.616;2023-07-30T07:31:28;60778.63;;;-145.49;100.00
36196;BME280;22237;51.974;4.616;2023-07-30T07:33:54;60778.63;;;-145.49;100.00
36196;BME280;22237;51.974;4.616;2023-07-30T07:36:19;60778.63;;;-145.49;100.00
36196;BME280;22237;51.974;4.616;2023-07-30T07:38:45;60778.63;;;-145.49;100.00
36196;BME280;22237;51.974;4.616;2023-07-30T07:41:17;60778.63;;;-145.49;100.00
36196;BME280;22237;51.974;4.616;2023-07-30T07:43:46;60778.63;;;-145.49;100.00
36196;BME280;22237;51.974;4.616;2023-07-30T07:46:12;60778.63;;;-145.49;100.00
36196;BME280;22237;51.974;4.616;2023-07-30T07:48:41;60778.63;;;-145.49;100.00
36196;BME280;22237;51.974;4.616;2023-07-30T07:51:08;60778.63;;;-145.49;100.00
36196;BME280;22237;51.974;4.616;2023-07-30T07:53:34;60778.63;;;-145.49;100.00
36196;BME280;22237;51.974;4.616;2023-07-30T07:56:00;60778.63;;;-145.49;100.00
36196;BME280;22237;51.974;4.616;2023-07-30T07:58:25;60778.63;;;-145.49;100.00
36196;BME280;22237;51.974;4.616;2023-07-30T08:00:54;60778.63;;;-145.49;100.00
36196;BME280;22237;51.974;4.616;2023-07-30T08:03:20;60778.63;;;-145.49;100.00
36196;BME280;22237;51.974;4.616;2023-07-30T08:05:46;60778.63;;;-145.49;100.00
36196;BME280;22237;51.974;4.616;2023-07-30T08:08:11;60778.63;;;-145.49;100.00
36196;BME280;22237;51.974;4.616;2023-07-30T08:10:40;60778.63;;;-145.49;100.00
36196;BME280;22237;51.974;4.616;2023-07-30T08:13:11;60778.63;;;-145.49;100.00
36196;BME280;22237;51.974;4.616;2023-07-30T08:15:37;60778.63;;;-145.49;100.00
36196;BME280;22237;51.974;4.616;2023-07-30T08:18:02;60778.63;;;-145.49;100.00
36196;BME280;22237;51.974;4.616;2023-07-30T08:20:28;60778.63;;;-145.49;100.00
36196;BME280;22237;51.974;4.616;2023-07-30T08:22:53;60778.63;;;-145.49;100.00
36196;BME280;22237;51.974;4.616;2023-07-30T08:25:19;60778.63;;;-145.49;100.00
36196;BME280;22237;51.974;4.616;2023-07-30T08:27:44;60778.63;;;-145.49;100.00
36196;BME280;22237;51.974;4.616;2023-07-30T08:30:10;60778.63;;;-145.49;100.00
36196;BME280;22237;51.974;4.616;2023-07-30T08:32:35;60778.63;;;-145.49;100.00
36196;BME280;22237;51.974;4.616;2023-07-30T08:35:01;60778.63;;;-145.49;100.00
36196;BME280;22237;51.974;4.616;2023-07-30T08:37:26;60778.63;;;-145.49;100.00
36196;BME280;22237;51.974;4.616;2023-07-30T08:39:52;60778.63;;;-145.49;100.00
36196;BME280;22237;51.974;4.616;2023-07-30T08:42:17;60778.63;;;-145.49;100.00
36196;BME280;22237;51.974;4.616;2023-07-30T08:44:43;60778.63;;;-145.49;100.00
36196;BME280;22237;51.974;4.616;2023-07-30T08:47:09;60778.63;;;-145.49;100.00
36196;BME280;22237;51.974;4.616;2023-07-30T08:49:35;60778.63;;;-145.49;100.00
36196;BME280;22237;51.974;4.616;2023-07-30T08:52:02;60778.63;;;-145.49;100.00
36196;BME280;22237;51.974;4.616;2023-07-30T08:54:30;60778.63;;;-145.49;100.00
36196;BME280;22237;51.974;4.616;2023-07-30T08:56:55;60778.63;;;-145.49;100.00
36196;BME280;22237;51.974;4.616;2023-07-30T08:59:21;60778.63;;;-145.49;100.00
36196;BME280;22237;51.974;4.616;2023-07-30T09:01:51;60778.63;;;-145.49;100.00
36196;BME280;22237;51.974;4.616;2023-07-30T09:04:18;60778.63;;;-145.49;100.00
36196;BME280;22237;51.974;4.616;2023-07-30T09:06:47;60778.63;;;-145.49;100.00
36196;BME280;22237;51.974;4.616;2023-07-30T09:09:13;60778.63;;;-145.49;100.00
36196;BME280;22237;51.974;4.616;2023-07-30T09:11:39;60778.63;;;-145.49;100.00
36196;BME280;22237;51.974;4.616;2023-07-30T09:14:05;60778.63;;;-145.49;100.00
36196;BME280;22237;51.974;4.616;2023-07-30T09:16:31;60778.63;;;-145.49;100.00
36196;BME280;22237;51.974;4.616;2023-07-30T09:18:57;60778.63;;;-145.49;100.00
36196;BME280;22237;51.974;4.616;2023-07-30T09:21:30;60778.63;;;-145.49;100.00
36196;BME280;22237;51.974;4.616;2023-07-30T09:23:56;60778.63;;;-145.49;100.00
36196;BME280;22237;51.974;4.616;2023-07-30T09:26:22;60778.63;;;-145.49;100.00
36196;BME280;22237;51.974;4.616;2023-07-30T09:28:47;60778.63;;;-145.49;100.00
36196;BME280;22237;51.974;4.616;2023-07-30T09:31:13;60778.63;;;-145.49;100.00
36196;BME280;22237;51.974;4.616;2023-07-30T09:33:40;60778.63;;;-145.49;100.00
36196;BME280;22237;51.974;4.616;2023-07-30T09:36:07;60778.63;;;-145.49;100.00
36196;BME280;22237;51.974;4.616;2023-07-30T09:38:39;60778.63;;;-145.49;100.00
36196;BME280;22237;51.974;4.616;2023-07-30T09:41:05;60778.63;;;-145.49;100.00
36196;BME280;22237;51.974;4.616;2023-07-30T09:43:34;60778.63;;;-145.49;100.00
36196;BME280;22237;51.974;4.616;2023-07-30T09:46:04;60778.63;;;-145.49;100.00
36196;BME280;22237;51.974;4.616;2023-07-30T09:48:31;60778.63;;;-145.49;100.00
36196;BME280;22237;51.974;4.616;2023-07-30T09:50:59;60778.63;;;-145.49;100.00
36196;BME280;22237;51.974;4.616;2023-07-30T09:53:26;60778.63;;;-145.49;100.00
36196;BME280;22237;51.974;4.616;2023-07-30T09:55:52;60778.63;;;-145.49;100.00
36196;BME280;22237;51.974;4.616;2023-07-30T09:58:17;60778.63;;;-145.49;100.00
36196;BME280;22237;51.974;4.616;2023-07-30T10:00:44;60778.63;;;-145.49;100.00
36196;BME280;22237;51.974;4.616;2023-07-30T10:03:11;60778.63;;;-145.49;100.00
36196;BME280;22237;51.974;4.616;2023-07-30T10:05:41;60778.63;;;-145.49;100.00
36196;BME280;22237;51.974;4.616;2023-07-30T10:08:16;60778.63;;;-145.49;100.00
36196;BME280;22237;51.974;4.616;2023-07-30T10:10:42;60778.63;;;-145.49;100.00
36196;BME280;22237;51.974;4.616;2023-07-30T10:13:10;60778.63;;;-145.49;100.00
36196;BME280;22237;51.974;4.616;2023-07-30T10:15:39;60778.63;;;-145.49;100.00
36196;BME280;22237;51.974;4.616;2023-07-30T10:18:05;60778.63;;;-145.49;100.00
36196;BME280;22237;51.974;4.616;2023-07-30T10:20:31;60778.63;;;-145.49;100.00
36196;BME280;22237;51.974;4.616;2023-07-30T10:22:58;60778.63;;;-145.49;100.00
36196;BME280;22237;51.974;4.616;2023-07-30T10:25:45;60778.63;;;-145.49;100.00
36196;BME280;22237;51.974;4.616;2023-07-30T10:28:31;60778.63;;;-145.49;100.00
36196;BME280;22237;51.974;4.616;2023-07-30T10:31:00;60778.63;;;-145.49;100.00
36196;BME280;22237;51.974;4.616;2023-07-30T10:33:44;60778.63;;;-145.49;100.00
36196;BME280;22237;51.974;4.616;2023-07-30T10:36:10;60778.63;;;-145.49;100.00
36196;BME280;22237;51.974;4.616;2023-07-30T10:38:35;60778.63;;;-145.49;100.00
36196;BME280;22237;51.974;4.616;2023-07-30T10:41:12;60778.63;;;-145.49;100.00
36196;BME280;22237;51.974;4.616;2023-07-30T10:43:43;60778.63;;;-145.49;100.00
36196;BME280;22237;51.974;4.616;2023-07-30T10:46:10;60778.63;;;-145.49;100.00
36196;BME280;22237;51.974;4.616;2023-07-30T10:48:38;60778.63;;;-145.49;100.00
36196;BME280;22237;51.974;4.616;2023-07-30T10:51:11;60778.63;;;-145.49;100.00
36196;BME280;22237;51.974;4.616;2023-07-30T10:53:37;60778.63;;;-145.49;100.00
36196;BME280;22237;51.974;4.616;2023-07-30T10:56:05;60778.63;;;-145.49;100.00
36196;BME280;22237;51.974;4.616;2023-07-30T10:58:32;60778.63;;;-145.49;100.00
36196;BME280;22237;51.974;4.616;2023-07-30T11:00:59;60778.63;;;-145.49;100.00
36196;BME280;22237;51.974;4.616;2023-07-30T11:03:26;60778.63;;;-145.49;100.00
36196;BME280;22237;51.974;4.616;2023-07-30T11:05:53;60778.63;;;-145.49;100.00
36196;BME280;22237;51.974;4.616;2023-07-30T11:08:18;60778.63;;;-145.49;100.00
36196;BME280;22237;51.974;4.616;2023-07-30T11:10:45;60778.63;;;-145.49;100.00
36196;BME280;22237;51.974;4.616;2023-07-30T11:13:13;60778.63;;;-145.49;100.00
36196;BME280;22237;51.974;4.616;2023-07-30T11:15:45;60778.63;;;-145.49;100.00
36196;BME280;22237;51.974;4.616;2023-07-30T11:18:12;60778.63;;;-145.49;100.00
36196;BME280;22237;51.974;4.616;2023-07-30T11:20:37;60778.63;;;-145.49;100.00
36196;BME280;22237;51.974;4.616;2023-07-30T11:23:20;60778.63;;;-145.49;100.00
36196;BME280;22237;51.974;4.616;2023-07-30T11:25:48;60778.63;;;-145.49;100.00
36196;BME280;22237;51.974;4.616;2023-07-30T11:28:14;60778.63;;;-145.49;100.00
36196;BME280;22237;51.974;4.616;2023-07-30T11:30:40;60778.63;;;-145.49;100.00
36196;BME280;22237;51.974;4.616;2023-07-30T11:33:05;60778.63;;;-145.49;100.00
36196;BME280;22237;51.974;4.616;2023-07-30T11:35:31;60778.63;;;-145.49;100.00
36196;BME280;22237;51.974;4.616;2023-07-30T11:37:56;60778.63;;;-145.49;100.00
36196;BME280;22237;51.974;4.616;2023-07-30T11:40:23;60778.63;;;-145.49;100.00
36196;BME280;22237;51.974;4.616;2023-07-30T11:42:49;60778.63;;;-145.49;100.00
36196;BME280;22237;51.974;4.616;2023-07-30T11:45:22;60778.63;;;-145.49;100.00
36196;BME280;22237;51.974;4.616;2023-07-30T11:47:48;60778.63;;;-145.49;100.00
36196;BME280;22237;51.974;4.616;2023-07-30T11:50:15;60778.63;;;-145.49;100.00
36196;BME280;22237;51.974;4.616;2023-07-30T11:52:54;60778.63;;;-145.49;100.00
36196;BME280;22237;51.974;4.616;2023-07-30T11:55:20;60778.63;;;-145.49;100.00
36196;BME280;22237;51.974;4.616;2023-07-30T11:57:45;60778.63;;;-145.49;100.00
36196;BME280;22237;51.974;4.616;2023-07-30T12:00:11;100307.28;;;27.08;69.60
36196;BME280;22237;51.974;4.616;2023-07-30T12:02:37;101120.38;;;27.33;41.59
36196;BME280;22237;51.974;4.616;2023-07-30T12:05:04;101117.47;;;29.63;40.33
36196;BME280;22237;51.974;4.616;2023-07-30T12:07:29;101123.25;;;30.73;37.90
36196;BME280;22237;51.974;4.616;2023-07-30T12:10:07;101114.41;;;30.30;38.78
36196;BME280;22237;51.974;4.616;2023-07-30T12:12:33;101121.94;;;30.25;38.06
36196;BME280;22237;51.974;4.616;2023-07-30T12:14:59;101122.34;;;29.40;37.32
36196;BME280;22237;51.974;4.616;2023-07-30T12:17:24;101117.06;;;29.22;37.43
36196;BME280;22237;51.974;4.616;2023-07-30T12:19:49;60778.63;;;-145.49;100.00
36196;BME280;22237;51.974;4.616;2023-07-30T12:22:15;60778.63;;;-145.49;100.00
36196;BME280;22237;51.974;4.616;2023-07-30T12:24:41;60778.63;;;-145.49;100.00
36196;BME280;22237;51.974;4.616;2023-07-30T12:27:06;60778.63;;;-145.49;100.00
36196;BME280;22237;51.974;4.616;2023-07-30T12:29:32;60778.63;;;-145.49;100.00